Time;durP1;ratioP1;P1;durP2;ratioP2;P2;SDS_P1;SDS_P2;PMS_P1;PMS_P2;Temp;Humidity;BMP_temperature;BMP_pressure;BME280_temperature;BME280_humidity;BME280_pressure;Samples;Min_cycle;Max_cycle;Signal;HPM_P1;HPM_P2
2022/08/13 00:02:17;;;;;;;9.20;5.67;;;27.70;59.00;;;;;;5031694;28;20129;-70
2022/08/13 00:07:22;;;;;;;9.07;6.18;;;27.70;59.20;;;;;;5050821;28;20041;-70
2022/08/13 00:09:47;;;;;;;6.78;5.53;;;27.80;59.10;;;;;;5049370;28;20470;-70
2022/08/13 00:15:09;;;;;;;7.93;7.13;;;27.70;59.20;;;;;;5051110;28;20037;-70
2022/08/13 00:17:35;;;;;;;8.38;6.85;;;27.70;59.20;;;;;;5049865;28;20025;-69
2022/08/13 00:20:01;;;;;;;9.80;6.72;;;27.70;59.20;;;;;;5051074;28;20025;-70
2022/08/13 00:22:27;;;;;;;9.07;5.63;;;27.70;59.20;;;;;;5051166;28;20079;-70
2022/08/13 00:24:55;;;;;;;9.27;5.57;;;27.80;59.20;;;;;;5051279;28;20033;-70
2022/08/13 00:27:22;;;;;;;7.80;6.05;;;27.70;59.20;;;;;;5050343;28;20025;-70
2022/08/13 00:29:49;;;;;;;7.30;6.05;;;27.90;59.10;;;;;;5055264;28;20029;-70
2022/08/13 00:32:21;;;;;;;9.00;6.20;;;27.80;59.20;;;;;;5051151;28;20032;-70
2022/08/13 00:34:49;;;;;;;10.00;6.30;;;27.80;59.10;;;;;;5051282;28;20107;-70
2022/08/13 00:37:15;;;;;;;7.97;6.03;;;27.70;59.20;;;;;;5050904;28;20033;-70
2022/08/13 00:39:41;;;;;;;9.38;6.28;;;27.80;59.20;;;;;;5050841;28;20124;-69
2022/08/13 00:42:08;;;;;;;9.52;6.10;;;27.60;59.10;;;;;;5051087;28;20041;-70
2022/08/13 00:44:34;;;;;;;8.70;5.78;;;27.70;59.10;;;;;;5049802;28;20048;-70
2022/08/13 00:49:47;;;;;;;7.35;6.53;;;27.70;59.20;;;;;;5050880;28;20375;-70
2022/08/13 00:52:13;;;;;;;8.18;6.95;;;27.70;59.30;;;;;;5050883;28;20040;-70
2022/08/13 00:54:42;;;;;;;8.73;6.55;;;27.60;59.30;;;;;;5051086;28;20373;-69
2022/08/13 00:57:10;;;;;;;7.55;6.43;;;27.60;59.30;;;;;;5050755;28;20140;-70
2022/08/13 00:59:36;;;;;;;8.45;6.50;;;27.70;59.40;;;;;;5050933;28;20527;-70
2022/08/13 01:02:04;;;;;;;8.25;7.28;;;27.70;59.30;;;;;;4998924;28;20095;-70
2022/08/13 01:04:31;;;;;;;9.10;6.15;;;27.80;59.30;;;;;;5050957;28;20043;-70
2022/08/13 01:07:01;;;;;;;8.15;6.18;;;27.80;59.30;;;;;;5050833;28;20095;-70
2022/08/13 01:09:29;;;;;;;11.27;5.93;;;27.80;59.30;;;;;;5050313;28;20540;-70
2022/08/13 01:11:59;;;;;;;7.03;5.85;;;27.70;59.30;;;;;;5049479;28;20111;-69
2022/08/13 01:14:32;;;;;;;8.35;7.05;;;27.70;59.30;;;;;;5050024;28;20040;-70
2022/08/13 01:17:03;;;;;;;6.85;6.15;;;27.60;59.30;;;;;;5048738;28;20474;-70
2022/08/13 01:19:31;;;;;;;9.30;6.80;;;27.80;59.30;;;;;;5051087;28;20040;-70
2022/08/13 01:21:59;;;;;;;9.27;7.43;;;27.70;59.30;;;;;;5053775;28;20366;-69
2022/08/13 01:24:25;;;;;;;6.63;5.68;;;27.70;59.20;;;;;;5053591;28;20044;-69
2022/08/13 01:26:52;;;;;;;9.57;7.35;;;27.70;59.10;;;;;;5059281;28;20044;-70
2022/08/13 01:29:20;;;;;;;8.63;6.47;;;27.60;59.20;;;;;;5067419;28;20044;-70
2022/08/13 01:31:47;;;;;;;10.10;7.00;;;27.60;59.30;;;;;;5053719;28;20478;-70
2022/08/13 01:34:15;;;;;;;10.63;6.68;;;27.50;59.40;;;;;;5053948;28;20104;-70
2022/08/13 01:36:43;;;;;;;11.20;7.63;;;27.60;59.40;;;;;;5054049;28;20521;-71
2022/08/13 01:39:10;;;;;;;7.90;5.20;;;27.60;59.40;;;;;;5053645;28;20493;-70
2022/08/13 01:41:36;;;;;;;7.85;7.05;;;27.70;59.40;;;;;;5053827;28;20041;-70
2022/08/13 01:44:06;;;;;;;7.80;5.90;;;27.60;59.50;;;;;;5053498;28;20430;-70
2022/08/13 01:52:04;;;;;;;7.15;6.07;;;27.80;59.50;;;;;;5053660;28;20374;-70
2022/08/13 01:54:33;;;;;;;7.28;6.00;;;27.60;59.40;;;;;;5053569;28;20120;-70
2022/08/13 01:57:01;;;;;;;8.20;6.68;;;27.80;59.40;;;;;;5053905;28;20458;-70
2022/08/13 01:59:29;;;;;;;7.53;5.85;;;27.70;59.40;;;;;;5051240;28;20045;-70
2022/08/13 02:01:57;;;;;;;8.15;7.22;;;27.60;59.30;;;;;;5053612;28;20036;-70
2022/08/13 02:04:26;;;;;;;8.35;6.95;;;27.70;59.40;;;;;;5036268;28;20048;-70
2022/08/13 02:06:52;;;;;;;8.88;6.25;;;27.60;59.30;;;;;;5053523;28;20410;-70
2022/08/13 02:09:19;;;;;;;7.90;6.97;;;27.50;59.30;;;;;;5070716;28;20841;-70
2022/08/13 02:11:45;;;;;;;8.45;5.97;;;27.70;59.30;;;;;;5073614;28;20474;-69
2022/08/13 02:14:13;;;;;;;8.48;5.93;;;27.60;59.30;;;;;;5072034;28;20038;-70
2022/08/13 02:16:39;;;;;;;7.28;5.93;;;27.60;59.50;;;;;;5053226;28;20033;-70
2022/08/13 02:19:07;;;;;;;7.72;6.20;;;27.50;59.50;;;;;;5050977;28;20072;-70
2022/08/13 02:21:36;;;;;;;11.20;6.72;;;27.80;59.50;;;;;;5053077;28;20143;-70
2022/08/13 02:24:03;;;;;;;8.10;6.47;;;27.70;59.60;;;;;;5058834;28;20029;-70
2022/08/13 02:26:32;;;;;;;6.97;5.30;;;27.50;59.50;;;;;;5064427;28;20068;-70
2022/08/13 02:29:00;;;;;;;7.72;5.63;;;27.60;59.60;;;;;;5073321;28;20040;-70
2022/08/13 02:31:28;;;;;;;10.32;6.88;;;27.60;59.50;;;;;;5072177;28;20040;-70
2022/08/13 02:33:55;;;;;;;11.60;7.38;;;27.60;59.60;;;;;;5072866;28;20098;-70
2022/08/13 02:36:23;;;;;;;8.05;7.05;;;27.60;59.60;;;;;;5072655;28;20043;-70
2022/08/13 02:39:06;;;;;;;7.22;6.03;;;27.60;59.50;;;;;;5072832;28;20529;-70
2022/08/13 02:41:42;;;;;;;11.32;7.70;;;27.70;59.50;;;;;;5072692;28;20489;-70
2022/08/13 02:44:16;;;;;;;7.20;6.25;;;27.50;59.50;;;;;;5072783;28;20428;-70
2022/08/13 02:46:48;;;;;;;9.68;7.20;;;27.50;59.50;;;;;;5062773;28;20073;-70
2022/08/13 02:49:14;;;;;;;8.07;6.40;;;27.70;59.50;;;;;;5051647;28;20035;-69
2022/08/13 02:51:42;;;;;;;9.38;7.07;;;27.70;59.50;;;;;;5051432;28;20099;-70
2022/08/13 02:54:09;;;;;;;7.20;5.78;;;27.60;59.50;;;;;;5051314;28;20045;-70
2022/08/13 02:56:36;;;;;;;8.82;6.93;;;27.60;59.30;;;;;;5052335;28;20496;-70
2022/08/13 02:59:08;;;;;;;9.00;6.97;;;27.60;59.50;;;;;;5051230;28;20367;-70
2022/08/13 03:01:39;;;;;;;9.48;6.18;;;27.60;59.60;;;;;;5051383;28;20043;-70
2022/08/13 03:04:09;;;;;;;7.50;6.50;;;27.50;59.60;;;;;;5052485;28;20052;-70
2022/08/13 03:06:35;;;;;;;8.20;6.90;;;27.60;59.60;;;;;;5052330;28;20069;-70
2022/08/13 03:09:02;;;;;;;7.13;6.28;;;27.60;59.60;;;;;;5051709;28;20036;-70
2022/08/13 03:11:29;;;;;;;8.98;6.65;;;27.60;59.70;;;;;;5051977;28;20029;-70
2022/08/13 03:14:08;;;;;;;9.43;6.50;;;27.50;59.70;;;;;;5052130;28;20033;-70
2022/08/13 03:16:34;;;;;;;8.98;6.45;;;27.60;59.70;;;;;;5052369;28;20029;-69
2022/08/13 03:19:01;;;;;;;7.40;6.63;;;27.60;59.60;;;;;;5051487;28;20124;-70
2022/08/13 03:21:33;;;;;;;10.23;6.72;;;27.70;59.60;;;;;;5053555;28;20043;-70
2022/08/13 03:24:00;;;;;;;8.38;6.57;;;27.70;59.60;;;;;;5055037;28;20052;-70
2022/08/13 03:26:26;;;;;;;7.68;6.05;;;27.70;59.60;;;;;;5071910;28;20045;-70
2022/08/13 03:28:54;;;;;;;6.40;5.28;;;27.70;59.60;;;;;;5071873;28;20032;-69
2022/08/13 03:31:21;;;;;;;7.07;6.22;;;27.60;59.50;;;;;;5070654;28;20041;-70
2022/08/13 03:33:47;;;;;;;8.15;6.80;;;27.50;59.50;;;;;;5071758;28;20418;-70
2022/08/13 03:36:14;;;;;;;6.15;4.30;;;27.60;59.50;;;;;;5057027;28;20497;-70
2022/08/13 03:38:40;;;;;;;11.20;7.05;;;27.60;59.40;;;;;;5051741;28;20032;-70
2022/08/13 03:41:14;;;;;;;7.22;5.90;;;27.50;59.50;;;;;;5051597;28;20056;-69
2022/08/13 03:43:47;;;;;;;8.43;5.60;;;27.50;59.70;;;;;;5050282;28;20052;-70
2022/08/13 03:46:20;;;;;;;5.90;4.07;;;27.60;59.70;;;;;;5051870;28;20104;-70
2022/08/13 03:48:48;;;;;;;6.80;6.03;;;27.60;59.70;;;;;;5051571;28;20533;-70
2022/08/13 03:51:16;;;;;;;7.72;4.90;;;27.60;59.70;;;;;;5051400;28;20162;-71
2022/08/13 03:53:44;;;;;;;9.32;6.38;;;27.60;59.70;;;;;;5051698;28;20060;-70
2022/08/13 03:56:12;;;;;;;9.25;6.47;;;27.50;59.00;;;;;;5034240;28;20044;-70
2022/08/13 03:58:38;;;;;;;9.02;6.60;;;27.50;59.80;;;;;;5051569;28;20028;-70
2022/08/13 04:01:05;;;;;;;8.93;7.07;;;27.50;59.30;;;;;;5051468;28;20025;-70
2022/08/13 04:03:36;;;;;;;9.18;7.10;;;27.50;59.60;;;;;;5051479;28;20041;-71
2022/08/13 04:06:16;;;;;;;7.07;6.35;;;27.50;59.50;;;;;;5069029;28;20040;-70
2022/08/13 04:08:44;;;;;;;11.52;7.55;;;27.30;59.80;;;;;;5069124;28;20107;-70
2022/08/13 04:11:14;;;;;;;7.00;6.20;;;27.40;59.80;;;;;;5069033;28;20408;-73
2022/08/13 04:13:41;;;;;;;10.55;6.72;;;27.30;60.30;;;;;;5069274;28;20037;-73
2022/08/13 04:16:08;;;;;;;9.18;7.03;;;27.50;62.30;;;;;;5069240;28;20048;-73
2022/08/13 04:18:37;;;;;;;10.80;7.32;;;27.70;64.80;;;;;;5068006;28;20063;-72
2022/08/13 04:21:06;;;;;;;12.77;8.68;;;27.90;65.00;;;;;;5075179;28;20428;-69
2022/08/13 04:23:38;;;;;;;13.05;7.13;;;28.00;64.30;;;;;;5052863;28;20040;-71
2022/08/13 04:26:05;;;;;;;11.65;7.45;;;28.00;62.20;;;;;;5047167;28;20131;-71
2022/08/13 04:28:31;;;;;;;9.40;6.82;;;27.90;60.30;;;;;;5068972;28;20397;-72
2022/08/13 04:30:58;;;;;;;10.73;7.72;;;27.90;60.40;;;;;;5068829;28;20436;-72
2022/08/13 04:33:25;;;;;;;9.60;7.15;;;27.90;60.30;;;;;;5068969;28;20033;-71
2022/08/13 04:35:52;;;;;;;9.82;6.47;;;27.80;60.10;;;;;;5068746;28;20044;-72
2022/08/13 04:38:18;;;;;;;10.25;7.47;;;27.90;60.00;;;;;;5051111;28;20363;-72
2022/08/13 04:40:46;;;;;;;9.20;6.70;;;27.80;59.90;;;;;;5051594;28;20165;-72
2022/08/13 04:43:13;;;;;;;10.18;7.07;;;27.80;59.80;;;;;;5050986;28;20369;-71
2022/08/13 04:45:41;;;;;;;10.98;7.72;;;28.00;60.30;;;;;;5051345;28;20099;-72
2022/08/13 04:48:09;;;;;;;11.18;6.97;;;27.90;59.80;;;;;;5051177;28;20045;-70
2022/08/13 04:50:37;;;;;;;11.18;6.72;;;28.00;60.20;;;;;;5049728;28;20565;-72
2022/08/13 04:53:07;;;;;;;8.10;6.85;;;27.90;58.80;;;;;;5049889;28;20041;-72
2022/08/13 04:55:34;;;;;;;3.22;2.85;;;27.90;58.30;;;;;;5053785;28;20037;-71
2022/08/13 04:58:00;;;;;;;2.50;1.73;;;27.80;59.10;;;;;;5053829;28;20386;-70
2022/08/13 05:00:33;;;;;;;9.65;4.82;;;27.70;57.80;;;;;;5054230;28;20056;-70
2022/08/13 05:03:11;;;;;;;8.30;5.70;;;27.80;57.70;;;;;;5053898;28;20448;-70
2022/08/13 05:05:38;;;;;;;15.73;5.65;;;27.60;57.70;;;;;;5071539;28;20040;-72
2022/08/13 05:08:07;;;;;;;3.72;3.33;;;27.60;58.20;;;;;;5071371;28;20052;-73
2022/08/13 05:10:38;;;;;;;5.53;3.88;;;27.70;58.40;;;;;;5054909;28;20082;-72
2022/08/13 05:13:27;;;;;;;6.95;4.30;;;27.70;58.70;;;;;;5071156;28;20043;-72
2022/08/13 05:15:56;;;;;;;10.85;6.53;;;27.60;59.30;;;;;;5070758;28;20719;-72
2022/08/13 05:18:23;;;;;;;6.78;4.57;;;27.60;59.10;;;;;;5063912;28;20031;-73
2022/08/13 05:20:50;;;;;;;8.10;4.30;;;27.70;58.90;;;;;;5037074;28;20612;-72
2022/08/13 05:23:16;;;;;;;10.38;6.80;;;27.70;59.60;;;;;;5051861;28;20076;-72
2022/08/13 05:25:42;;;;;;;7.60;5.72;;;27.80;58.60;;;;;;5052079;28;20040;-72
2022/08/13 05:28:09;;;;;;;5.55;3.78;;;27.70;58.70;;;;;;5052182;28;20036;-72
2022/08/13 05:30:38;;;;;;;9.07;5.53;;;27.60;58.70;;;;;;5067142;28;20052;-73
2022/08/13 05:33:18;;;;;;;13.52;7.85;;;27.70;58.80;;;;;;5071858;28;20037;-71
2022/08/13 05:35:47;;;;;;;11.63;7.22;;;27.80;59.20;;;;;;5069405;28;20188;-71
2022/08/13 05:38:15;;;;;;;10.70;7.72;;;27.70;59.20;;;;;;5052543;28;20037;-70
2022/08/13 05:40:43;;;;;;;9.95;7.88;;;27.80;59.30;;;;;;5050098;28;20076;-72
2022/08/13 05:43:14;;;;;;;11.15;7.35;;;27.70;59.10;;;;;;5051492;28;20036;-71
2022/08/13 05:45:44;;;;;;;12.93;7.68;;;27.70;58.00;;;;;;5049078;28;20128;-71
2022/08/13 05:48:10;;;;;;;9.50;7.43;;;27.70;58.40;;;;;;5051964;28;20043;-71
2022/08/13 05:50:37;;;;;;;12.20;7.30;;;27.50;58.30;;;;;;5050104;28;20077;-70
2022/08/13 05:53:08;;;;;;;11.30;7.75;;;27.40;59.40;;;;;;5052775;28;20036;-69
2022/08/13 05:55:38;;;;;;;12.68;8.15;;;27.60;58.40;;;;;;5052735;28;20397;-70
2022/08/13 05:58:07;;;;;;;10.80;6.93;;;27.40;58.70;;;;;;5052947;28;20033;-70
2022/08/13 06:03:25;;;;;;;11.27;7.63;;;27.50;58.90;;;;;;5051464;28;20041;-68
2022/08/13 06:05:56;;;;;;;13.20;7.57;;;27.50;59.20;;;;;;5048922;28;20029;-69
2022/08/13 06:08:28;;;;;;;12.02;8.32;;;27.60;59.50;;;;;;5053053;28;20087;-70
2022/08/13 06:11:03;;;;;;;9.30;7.30;;;27.60;59.00;;;;;;5042029;28;20544;-70
2022/08/13 06:13:30;;;;;;;13.43;8.88;;;27.60;58.40;;;;;;5054018;28;20115;-69
2022/08/13 06:16:00;;;;;;;13.98;8.60;;;27.70;58.30;;;;;;5064319;28;20040;-70
2022/08/13 06:18:31;;;;;;;10.48;8.07;;;27.50;58.30;;;;;;5054692;28;20609;-71
2022/08/13 06:21:01;;;;;;;11.38;7.30;;;27.60;58.00;;;;;;5040086;28;20104;-69
2022/08/13 06:23:29;;;;;;;12.75;8.25;;;27.70;58.10;;;;;;5033364;28;20037;-70
2022/08/13 06:25:57;;;;;;;9.60;6.90;;;27.70;58.00;;;;;;5032419;28;20063;-70
2022/08/13 06:28:27;;;;;;;12.25;7.55;;;27.60;57.80;;;;;;5033453;28;20048;-70
2022/08/13 06:30:53;;;;;;;13.43;8.65;;;27.70;58.00;;;;;;5047686;28;20041;-69
2022/08/13 06:33:21;;;;;;;18.63;8.48;;;27.50;58.30;;;;;;5047843;28;20381;-70
2022/08/13 06:36:03;;;;;;;11.55;8.63;;;27.50;57.90;;;;;;5052040;28;20037;-70
2022/08/13 06:38:34;;;;;;;12.38;8.55;;;27.50;57.80;;;;;;5052392;28;20563;-70
2022/08/13 06:41:03;;;;;;;21.48;10.43;;;27.80;57.90;;;;;;5049752;28;20045;-69
2022/08/13 06:43:42;;;;;;;19.90;10.45;;;27.60;57.50;;;;;;5052798;28;20425;-70
2022/08/13 06:46:10;;;;;;;16.05;11.35;;;27.70;57.20;;;;;;5033036;28;20042;-70
2022/08/13 06:48:36;;;;;;;18.42;10.68;;;27.70;57.20;;;;;;5052411;28;20055;-70
2022/08/13 06:51:07;;;;;;;21.02;10.98;;;27.70;57.50;;;;;;5051839;28;20117;-70
2022/08/13 06:53:35;;;;;;;15.55;9.82;;;27.50;58.00;;;;;;5050876;28;20032;-70
2022/08/13 06:56:07;;;;;;;14.48;9.85;;;27.40;58.00;;;;;;5050274;28;20063;-70
2022/08/13 06:58:35;;;;;;;18.17;9.97;;;27.40;58.30;;;;;;5051965;28;20045;-71
2022/08/13 07:01:01;;;;;;;19.45;9.68;;;27.30;58.40;;;;;;5052025;28;20433;-71
2022/08/13 07:03:29;;;;;;;13.73;9.77;;;27.40;58.70;;;;;;5050565;28;20069;-73
2022/08/13 07:05:56;;;;;;;11.30;7.75;;;27.40;58.70;;;;;;5054461;28;20026;-71
2022/08/13 07:08:27;;;;;;;15.57;10.82;;;27.30;58.70;;;;;;5072476;28;20115;-73
2022/08/13 07:13:41;;;;;;;13.48;9.88;;;27.30;59.20;;;;;;5053786;28;20025;-72
2022/08/13 07:16:08;;;;;;;19.05;12.00;;;27.40;59.20;;;;;;5038503;28;20029;-71
2022/08/13 07:18:35;;;;;;;15.10;10.18;;;27.20;59.50;;;;;;5049769;28;20037;-72
2022/08/13 07:21:11;;;;;;;16.05;8.80;;;27.30;59.70;;;;;;5041218;28;20020;-71
2022/08/13 07:23:42;;;;;;;10.93;7.30;;;27.30;59.70;;;;;;5045738;28;20040;-70
2022/08/13 07:26:11;;;;;;;15.15;10.38;;;27.20;59.70;;;;;;5050949;28;20041;-71
2022/08/13 07:28:37;;;;;;;15.02;10.77;;;27.30;59.50;;;;;;5049854;28;20098;-69
2022/08/13 07:31:07;;;;;;;15.75;10.70;;;27.20;59.60;;;;;;5050815;28;20032;-71
2022/08/13 07:33:35;;;;;;;16.52;11.25;;;27.20;59.80;;;;;;5051953;28;20029;-72
2022/08/13 07:36:06;;;;;;;17.25;10.45;;;27.20;59.90;;;;;;5051415;28;20029;-70
2022/08/13 07:38:33;;;;;;;14.70;10.38;;;27.30;59.70;;;;;;5047028;28;20041;-72
2022/08/13 07:41:02;;;;;;;15.00;10.55;;;27.30;59.70;;;;;;5031982;28;20446;-71
2022/08/13 07:43:36;;;;;;;20.75;12.90;;;27.40;59.60;;;;;;5059074;28;20041;-72
2022/08/13 07:46:12;;;;;;;17.92;11.88;;;27.30;61.80;;;;;;5071885;28;20052;-74
2022/08/13 07:48:40;;;;;;;19.35;12.27;;;27.30;61.60;;;;;;5072184;28;20108;-73
2022/08/13 07:51:29;;;;;;;19.77;11.35;;;27.40;61.80;;;;;;5067509;28;20036;-73
2022/08/13 07:53:56;;;;;;;15.73;10.80;;;27.40;62.00;;;;;;5051428;28;20032;-73
2022/08/13 07:56:30;;;;;;;16.88;10.05;;;27.50;62.00;;;;;;5051616;28;20044;-74
2022/08/13 07:59:00;;;;;;;19.48;10.02;;;27.40;61.90;;;;;;5051467;28;20469;-73
2022/08/13 08:01:27;;;;;;;16.27;11.27;;;27.50;62.00;;;;;;5049913;28;20147;-73
2022/08/13 08:03:56;;;;;;;16.23;8.65;;;27.50;61.90;;;;;;5051753;28;20032;-73
2022/08/13 08:06:23;;;;;;;19.30;12.48;;;27.50;61.30;;;;;;5051715;28;20033;-72
2022/08/13 08:08:52;;;;;;;16.95;13.18;;;27.60;60.40;;;;;;5049290;28;20039;-72
2022/08/13 08:14:05;;;;;;;22.98;12.85;;;27.70;59.90;;;;;;5051339;28;20064;-72
2022/08/13 08:16:36;;;;;;;18.73;9.82;;;27.60;59.60;;;;;;5051797;28;20409;-72
2022/08/13 08:19:04;;;;;;;17.73;12.52;;;27.60;59.60;;;;;;5051491;28;20033;-71
2022/08/13 08:21:31;;;;;;;17.40;12.60;;;27.80;59.40;;;;;;5051499;28;20049;-72
2022/08/13 08:24:02;;;;;;;16.63;11.35;;;27.70;59.40;;;;;;5051155;28;20037;-72
2022/08/13 08:26:30;;;;;;;17.83;12.48;;;27.80;59.40;;;;;;5050102;28;20036;-71
2022/08/13 08:28:59;;;;;;;16.45;11.32;;;27.70;59.00;;;;;;5051603;28;20037;-72
2022/08/13 08:31:27;;;;;;;17.17;12.80;;;27.70;59.30;;;;;;5055233;28;20547;-72
2022/08/13 08:33:55;;;;;;;13.93;10.63;;;27.60;59.10;;;;;;5054570;28;20537;-73
2022/08/13 08:36:22;;;;;;;17.85;12.55;;;27.80;59.00;;;;;;5055168;28;20470;-71
2022/08/13 08:44:30;;;;;;;21.83;11.98;;;27.90;61.70;;;;;;5053938;28;20037;-73
2022/08/13 08:46:57;;;;;;;20.58;13.30;;;27.80;62.50;;;;;;5054925;28;20122;-73
2022/08/13 08:49:24;;;;;;;19.02;9.30;;;28.10;63.60;;;;;;5055149;28;20561;-73
2022/08/13 08:51:51;;;;;;;22.80;13.63;;;28.30;62.80;;;;;;5055363;28;20024;-74
2022/08/13 08:54:20;;;;;;;16.65;12.98;;;28.30;64.40;;;;;;5054973;28;20036;-73
2022/08/13 08:56:48;;;;;;;19.63;11.45;;;28.30;65.50;;;;;;5053609;28;20064;-72
2022/08/13 08:59:15;;;;;;;17.10;12.90;;;28.30;64.00;;;;;;5055059;28;20378;-72
2022/08/13 09:01:44;;;;;;;25.95;8.02;;;28.20;61.20;;;;;;5050978;28;20029;-73
2022/08/13 09:04:12;;;;;;;16.38;10.15;;;28.20;61.40;;;;;;5053652;28;20386;-73
2022/08/13 09:06:40;;;;;;;7.25;4.10;;;28.30;61.10;;;;;;5052803;28;20409;-73
2022/08/13 09:09:08;;;;;;;5.22;3.78;;;28.30;61.40;;;;;;5056289;28;20063;-73
2022/08/13 09:11:39;;;;;;;10.38;6.93;;;28.30;62.00;;;;;;5052814;28;20069;-74
2022/08/13 09:14:07;;;;;;;7.00;4.95;;;28.40;63.30;;;;;;5051111;28;20055;-74
2022/08/13 09:16:39;;;;;;;13.75;8.93;;;28.30;65.90;;;;;;5051979;28;20060;-73
2022/08/13 09:19:07;;;;;;;21.48;6.38;;;28.70;66.70;;;;;;5052520;28;20037;-73
2022/08/13 09:21:45;;;;;;;5.65;4.97;;;28.60;65.50;;;;;;5053588;28;20033;-73
2022/08/13 09:24:15;;;;;;;11.52;5.53;;;28.60;66.20;;;;;;5050192;28;20029;-73
2022/08/13 09:26:47;;;;;;;13.38;8.70;;;28.60;63.50;;;;;;5052296;28;20386;-72
2022/08/13 09:29:19;;;;;;;3.05;2.75;;;28.60;61.80;;;;;;5051026;28;20104;-70
2022/08/13 09:31:50;;;;;;;14.80;9.50;;;28.50;60.50;;;;;;5052076;28;20417;-71
2022/08/13 09:34:18;;;;;;;8.25;5.88;;;28.60;60.30;;;;;;5053289;28;20035;-72
2022/08/13 09:36:45;;;;;;;6.85;5.45;;;28.40;60.10;;;;;;5052611;28;20017;-72
2022/08/13 09:39:30;;;;;;;6.05;4.57;;;28.40;61.10;;;;;;5051154;28;20025;-75
2022/08/13 09:41:56;;;;;;;9.00;5.93;;;28.60;63.00;;;;;;5052140;28;20425;-75
2022/08/13 09:44:25;;;;;;;17.98;12.95;;;28.60;62.60;;;;;;5050501;28;20517;-74
2022/08/13 09:46:51;;;;;;;18.08;12.48;;;28.60;59.60;;;;;;5054049;28;20116;-71
2022/08/13 09:49:18;;;;;;;19.75;12.93;;;28.60;59.20;;;;;;5051984;28;20040;-74
2022/08/13 09:51:45;;;;;;;17.80;11.43;;;28.70;58.80;;;;;;5052816;28;20074;-70
2022/08/13 09:54:11;;;;;;;5.63;4.75;;;28.70;59.30;;;;;;5052872;28;20444;-68
2022/08/13 09:56:38;;;;;;;16.58;6.35;;;28.50;61.20;;;;;;5052812;28;20400;-73
2022/08/13 09:59:10;;;;;;;18.85;13.82;;;28.70;61.20;;;;;;5052887;28;20043;-72
2022/08/13 10:01:36;;;;;;;;;;;28.80;64.10;;;;;;5035596;28;20075;-74
2022/08/13 10:04:04;;;;;;;19.48;13.27;;;28.80;61.30;;;;;;5052118;28;19912;-71
2022/08/13 10:06:32;;;;;;;14.32;10.25;;;28.80;60.20;;;;;;5057226;28;20036;-73
2022/08/13 10:09:02;;;;;;;17.80;13.82;;;28.80;60.60;;;;;;5071686;28;20142;-71
2022/08/13 10:11:28;;;;;;;19.48;13.60;;;28.90;61.10;;;;;;5053523;28;20051;-71
2022/08/13 10:13:54;;;;;;;19.67;12.90;;;29.00;61.40;;;;;;5069155;28;20074;-72
2022/08/13 10:16:21;;;;;;;21.77;12.65;;;29.00;60.70;;;;;;5069927;28;20434;-72
2022/08/13 10:18:47;;;;;;;19.00;13.60;;;28.80;59.30;;;;;;5053179;28;20362;-71
2022/08/13 10:21:14;;;;;;;21.15;13.00;;;28.90;59.10;;;;;;5069726;28;20493;-71
2022/08/13 10:23:41;;;;;;;18.38;12.07;;;28.80;58.80;;;;;;5044508;28;20124;-72
2022/08/13 10:26:07;;;;;;;17.80;12.85;;;28.80;58.60;;;;;;5064321;28;20040;-73
2022/08/13 10:28:35;;;;;;;20.30;12.52;;;28.80;59.00;;;;;;5069799;28;20044;-71
2022/08/13 10:31:04;;;;;;;17.05;12.23;;;28.60;59.00;;;;;;5053678;28;20056;-73
2022/08/13 10:33:32;;;;;;;19.25;12.18;;;28.60;59.20;;;;;;5070275;28;20024;-73
2022/08/13 10:35:59;;;;;;;18.98;12.07;;;28.80;58.80;;;;;;5069987;28;20440;-71
2022/08/13 10:38:26;;;;;;;22.23;12.27;;;28.70;58.60;;;;;;5069910;28;20469;-74
2022/08/13 10:41:10;;;;;;;16.80;11.35;;;28.80;58.50;;;;;;5054721;28;20049;-74
2022/08/13 10:43:38;;;;;;;15.18;12.13;;;28.70;58.50;;;;;;5051063;28;20128;-73
2022/08/13 10:46:07;;;;;;;20.48;11.98;;;28.80;58.20;;;;;;5052786;28;20116;-73
2022/08/13 10:48:33;;;;;;;16.58;12.32;;;28.80;58.40;;;;;;5052620;28;20036;-73
2022/08/13 10:50:59;;;;;;;17.90;10.40;;;28.80;58.40;;;;;;5052419;28;20120;-74
2022/08/13 10:56:11;;;;;;;16.40;12.07;;;28.70;58.20;;;;;;5052403;28;20040;-73
2022/08/13 10:58:41;;;;;;;17.45;12.23;;;28.80;58.10;;;;;;5050996;28;20119;-73
2022/08/13 11:01:07;;;;;;;17.00;11.82;;;28.80;58.00;;;;;;5051102;28;20047;-72
2022/08/13 11:03:33;;;;;;;17.35;11.27;;;28.60;58.10;;;;;;5051897;28;20033;-73
2022/08/13 11:06:00;;;;;;;20.33;11.77;;;28.70;58.30;;;;;;5054364;28;20033;-73
2022/08/13 11:08:27;;;;;;;15.02;11.20;;;28.80;58.30;;;;;;5051852;28;20615;-74
2022/08/13 11:10:53;;;;;;;17.02;12.85;;;28.80;58.30;;;;;;5051766;28;20114;-74
2022/08/13 11:13:19;;;;;;;15.32;11.13;;;28.80;58.20;;;;;;5052357;28;20470;-74
2022/08/13 11:15:45;;;;;;;16.92;12.48;;;28.70;58.30;;;;;;5051700;28;20033;-73
2022/08/13 11:18:11;;;;;;;13.93;10.48;;;28.80;58.20;;;;;;5051858;28;20696;-72
2022/08/13 11:23:21;;;;;;;17.30;12.60;;;28.70;58.30;;;;;;5051716;28;20033;-73
2022/08/13 11:25:47;;;;;;;16.20;12.77;;;28.70;58.20;;;;;;5051306;28;20033;-73
2022/08/13 11:28:14;;;;;;;14.38;11.40;;;28.80;58.20;;;;;;5050309;28;20036;-72
2022/08/13 11:30:40;;;;;;;15.93;12.18;;;28.70;58.40;;;;;;5052139;28;20036;-73
2022/08/13 11:33:06;;;;;;;19.98;11.50;;;28.70;58.40;;;;;;5052079;28;20037;-73
2022/08/13 11:35:34;;;;;;;18.20;12.05;;;28.70;58.50;;;;;;5052107;28;20051;-73
2022/08/13 11:38:11;;;;;;;17.52;11.20;;;28.60;58.60;;;;;;5051715;28;20044;-73
2022/08/13 11:40:38;;;;;;;16.65;11.10;;;28.70;60.50;;;;;;5036028;28;20045;-73
2022/08/13 11:43:04;;;;;;;14.00;9.73;;;28.60;60.10;;;;;;5052103;28;20549;-75
2022/08/13 11:45:31;;;;;;;14.00;11.07;;;28.60;59.30;;;;;;5051824;28;20095;-74
2022/08/13 11:47:57;;;;;;;14.35;10.95;;;28.70;58.70;;;;;;5051889;28;20516;-75
2022/08/13 11:50:23;;;;;;;19.88;11.25;;;28.60;58.80;;;;;;5051059;28;20048;-72
2022/08/13 11:52:49;;;;;;;17.60;10.70;;;28.70;58.60;;;;;;5051972;28;20029;-73
2022/08/13 11:55:15;;;;;;;17.80;11.18;;;28.80;58.70;;;;;;5051646;28;20025;-73
2022/08/13 11:57:41;;;;;;;14.48;10.68;;;28.80;58.70;;;;;;5051650;28;20032;-76
2022/08/13 12:00:08;;;;;;;14.27;9.43;;;28.70;58.70;;;;;;5052250;28;20035;-73
2022/08/13 12:02:34;;;;;;;14.73;10.23;;;28.70;58.60;;;;;;5059179;28;20339;-74
2022/08/13 12:05:00;;;;;;;11.88;9.93;;;28.60;58.40;;;;;;5050507;28;20457;-73
2022/08/13 12:07:26;;;;;;;16.63;10.98;;;28.80;58.50;;;;;;5051001;28;20039;-72
2022/08/13 12:09:55;;;;;;;14.45;10.18;;;28.70;58.20;;;;;;5051278;28;20059;-74
2022/08/13 12:12:21;;;;;;;15.07;10.77;;;28.60;58.10;;;;;;5051016;28;20036;-74
2022/08/13 12:14:48;;;;;;;13.68;9.75;;;28.70;58.00;;;;;;5050990;28;20044;-76
2022/08/13 12:17:15;;;;;;;12.98;11.45;;;28.60;58.10;;;;;;5051403;28;20151;-74
2022/08/13 12:19:41;;;;;;;16.50;11.45;;;28.60;57.90;;;;;;5051239;28;20029;-73
2022/08/13 12:22:07;;;;;;;17.13;10.60;;;28.60;58.20;;;;;;5050525;28;20500;-73
2022/08/13 12:24:33;;;;;;;14.05;10.23;;;28.60;58.10;;;;;;5051546;28;20079;-73
2022/08/13 12:27:00;;;;;;;13.32;9.70;;;28.70;58.10;;;;;;5051713;28;20059;-72
2022/08/13 12:29:26;;;;;;;12.82;10.07;;;28.70;58.20;;;;;;5051284;28;20041;-73
2022/08/13 12:31:52;;;;;;;13.40;10.27;;;28.70;58.10;;;;;;5051372;28;20040;-73
2022/08/13 12:34:18;;;;;;;13.38;10.18;;;28.60;58.10;;;;;;5051281;28;20040;-72
2022/08/13 12:36:44;;;;;;;13.95;10.38;;;28.60;58.10;;;;;;5051308;28;20082;-72
2022/08/13 12:39:10;;;;;;;12.35;9.65;;;28.60;58.10;;;;;;5051510;28;20448;-73
2022/08/13 12:41:36;;;;;;;13.70;9.80;;;28.70;58.00;;;;;;5051113;28;20099;-73
2022/08/13 12:44:02;;;;;;;14.45;10.00;;;28.60;58.00;;;;;;5051201;28;20025;-73
2022/08/13 12:46:28;;;;;;;11.75;9.00;;;28.70;58.10;;;;;;5051074;28;20045;-73
2022/08/13 12:48:54;;;;;;;15.65;10.32;;;28.60;58.10;;;;;;5051142;28;20029;-73
2022/08/13 12:51:20;;;;;;;11.52;8.95;;;28.60;58.00;;;;;;5051077;28;20037;-73
2022/08/13 12:53:46;;;;;;;14.55;9.98;;;28.60;58.10;;;;;;5048781;28;20493;-73
2022/08/13 12:56:12;;;;;;;13.50;9.93;;;28.60;58.00;;;;;;5051020;28;20040;-72
2022/08/13 12:58:38;;;;;;;12.85;9.65;;;28.60;58.00;;;;;;5058740;28;20047;-73
2022/08/13 13:01:04;;;;;;;18.77;11.32;;;28.60;57.90;;;;;;5050858;28;20044;-73
2022/08/13 13:03:31;;;;;;;18.13;10.38;;;28.60;57.90;;;;;;5051114;28;20474;-73
2022/08/13 13:05:57;;;;;;;10.93;9.40;;;28.60;58.00;;;;;;5051267;28;20033;-73
2022/08/13 13:08:28;;;;;;;13.23;9.38;;;28.60;57.90;;;;;;5051329;28;20025;-72
2022/08/13 13:10:56;;;;;;;14.43;10.23;;;28.60;58.10;;;;;;5051358;28;20029;-73
2022/08/13 13:13:26;;;;;;;17.25;10.05;;;28.60;58.10;;;;;;5051070;28;20481;-73
2022/08/13 13:15:54;;;;;;;16.25;9.75;;;28.60;58.10;;;;;;5052316;28;20040;-73
2022/08/13 13:18:22;;;;;;;13.13;9.52;;;28.60;58.10;;;;;;5054627;28;20033;-73